createdAt,value
2022-09-15T00:02:27.530Z,14.81
2022-09-15T00:07:32.126Z,14.90
2022-09-15T00:12:34.778Z,15.00
2022-09-15T00:17:37.408Z,15.09
2022-09-15T00:22:41.375Z,15.09
2022-09-15T00:27:43.971Z,15.06
2022-09-15T00:32:46.572Z,15.03
2022-09-15T00:37:50.561Z,14.98
2022-09-15T00:42:53.230Z,14.95
2022-09-15T00:47:55.857Z,14.88
2022-09-15T00:53:02.035Z,14.91
2022-09-15T00:58:06.642Z,14.85
2022-09-15T01:03:09.281Z,14.67
2022-09-15T01:08:18.815Z,14.58
2022-09-15T01:13:21.401Z,14.55
2022-09-15T01:18:28.513Z,14.62
2022-09-15T01:23:46.723Z,14.52
2022-09-15T01:29:05.885Z,14.48
2022-09-15T01:34:15.790Z,14.46
2022-09-15T01:39:22.616Z,14.59
2022-09-15T01:44:27.593Z,14.59
2022-09-15T01:49:35.866Z,14.44
2022-09-15T01:54:44.257Z,14.18
2022-09-15T01:59:46.831Z,14.05
2022-09-15T02:04:53.368Z,13.92
2022-09-15T02:10:00.783Z,13.89
2022-09-15T02:15:08.005Z,13.90
2022-09-15T02:20:16.461Z,13.83
2022-09-15T02:25:22.013Z,13.90
2022-09-15T02:30:25.184Z,13.90
2022-09-15T02:35:30.934Z,14.01
2022-09-15T02:40:33.872Z,14.02
2022-09-15T02:45:36.652Z,14.06
2022-09-15T02:50:41.220Z,14.17
2022-09-15T02:55:43.801Z,14.16
2022-09-15T03:00:46.449Z,14.28
2022-09-15T03:05:50.410Z,14.41
2022-09-15T03:10:53.075Z,14.43
2022-09-15T03:15:55.715Z,14.40
2022-09-15T03:20:59.810Z,14.22
2022-09-15T03:26:03.968Z,14.12
2022-09-15T03:31:07.518Z,14.18
2022-09-15T03:36:11.801Z,14.24
2022-09-15T03:41:14.802Z,14.25
2022-09-15T03:46:17.922Z,14.28
2022-09-15T03:51:22.164Z,14.20
2022-09-15T03:56:26.070Z,14.19
2022-09-15T04:01:29.071Z,14.28
2022-09-15T04:06:33.138Z,14.40
2022-09-15T04:11:35.736Z,14.45
2022-09-15T04:16:38.335Z,14.45
2022-09-15T04:21:42.279Z,14.45
2022-09-15T04:26:45.164Z,14.49
2022-09-15T04:31:48.530Z,14.54
2022-09-15T04:36:52.686Z,14.56
2022-09-15T04:41:55.455Z,14.52
2022-09-15T04:46:58.141Z,14.48
2022-09-15T04:52:04.757Z,14.44
2022-09-15T04:57:10.663Z,14.36
2022-09-15T05:02:13.349Z,14.34
2022-09-15T05:07:17.391Z,14.33
2022-09-15T05:12:19.973Z,14.25
2022-09-15T05:17:26.211Z,14.21
2022-09-15T05:22:30.990Z,14.29
2022-09-15T05:27:33.810Z,14.32
2022-09-15T05:32:36.430Z,14.32
2022-09-15T05:37:40.403Z,14.34
2022-09-15T05:42:42.999Z,14.41
2022-09-15T05:47:45.637Z,14.45
2022-09-15T05:52:53.107Z,14.53
2022-09-15T05:57:55.706Z,14.57
2022-09-15T06:02:58.362Z,14.47
2022-09-15T06:08:02.839Z,14.56
2022-09-15T06:13:05.984Z,14.66
2022-09-15T06:18:08.581Z,14.81
2022-09-15T06:23:12.528Z,14.96
2022-09-15T06:28:15.183Z,15.03
2022-09-15T06:33:17.803Z,15.03
2022-09-15T06:38:21.941Z,15.00
2022-09-15T06:43:24.635Z,14.99
2022-09-15T06:48:27.287Z,15.00
2022-09-15T06:53:32.447Z,14.96
2022-09-15T06:58:36.217Z,14.95
2022-09-15T07:03:40.254Z,14.89
2022-09-15T07:08:45.329Z,14.87
2022-09-15T07:13:48.537Z,15.02
2022-09-15T07:18:51.147Z,15.17
2022-09-15T07:23:57.545Z,15.31
2022-09-15T07:29:01.556Z,15.40
2022-09-15T07:34:04.252Z,15.43
2022-09-15T07:39:08.288Z,15.49
2022-09-15T07:44:11.829Z,15.49
2022-09-15T07:49:14.587Z,15.66
2022-09-15T07:54:22.612Z,15.74
2022-09-15T07:59:25.717Z,15.79
2022-09-15T08:04:28.640Z,15.80
2022-09-15T08:09:32.686Z,15.85
2022-09-15T08:14:35.957Z,15.87
2022-09-15T08:19:38.604Z,15.90
2022-09-15T08:24:42.535Z,15.88
2022-09-15T08:29:45.255Z,16.00
2022-09-15T08:34:47.925Z,16.01
2022-09-15T08:39:52.205Z,16.02
2022-09-15T08:44:57.920Z,16.06
2022-09-15T08:50:05.173Z,16.23
2022-09-15T08:55:15.005Z,16.34
2022-09-15T09:00:18.446Z,16.39
2022-09-15T09:05:42.948Z,16.54
2022-09-15T09:10:51.944Z,16.59
2022-09-15T09:16:09.442Z,16.44
2022-09-15T09:21:20.158Z,16.55
2022-09-15T09:26:24.106Z,16.56
2022-09-15T09:31:28.621Z,16.72
2022-09-15T09:36:31.435Z,16.94
2022-09-15T09:41:38.860Z,16.97
2022-09-15T09:46:42.655Z,16.70
2022-09-15T09:51:52.928Z,16.63
2022-09-15T09:56:58.332Z,16.77
2022-09-15T10:02:20.917Z,16.94
2022-09-15T10:07:25.739Z,17.18
2022-09-15T10:12:34.108Z,17.14
2022-09-15T10:17:42.482Z,17.19
2022-09-15T10:22:45.371Z,17.20
2022-09-15T10:28:03.364Z,17.37
2022-09-15T10:33:20.135Z,17.79
2022-09-15T10:38:30.644Z,17.79
2022-09-15T10:43:42.034Z,18.01
2022-09-15T10:48:49.860Z,18.00
2022-09-15T10:54:05.806Z,17.91
2022-09-15T10:59:38.020Z,17.32
2022-09-15T11:05:11.575Z,16.86
2022-09-15T11:10:20.133Z,16.55
2022-09-15T11:15:38.443Z,16.40
2022-09-15T11:21:06.953Z,16.26
2022-09-15T11:26:14.874Z,16.36
2022-09-15T11:31:22.307Z,16.43
2022-09-15T11:36:31.448Z,16.29
2022-09-15T11:41:37.089Z,16.19
2022-09-15T11:46:51.611Z,16.15
2022-09-15T11:51:59.433Z,16.06
2022-09-15T11:57:02.048Z,16.02
2022-09-15T12:02:12.788Z,15.99
2022-09-15T12:07:19.766Z,16.04
2022-09-15T12:12:22.988Z,16.11
2022-09-15T12:17:30.851Z,16.40
2022-09-15T12:22:37.438Z,16.59
2022-09-15T12:27:40.299Z,16.62
2022-09-15T12:32:44.238Z,16.57
2022-09-15T12:37:47.877Z,16.47
2022-09-15T12:42:50.710Z,16.49
2022-09-15T12:47:56.576Z,16.48
2022-09-15T12:53:00.938Z,16.73
2022-09-15T12:58:08.780Z,17.87
2022-09-15T13:03:28.664Z,17.45
2022-09-15T13:08:49.316Z,17.30
2022-09-15T13:13:54.532Z,17.48
2022-09-15T13:19:17.765Z,17.54
2022-09-15T13:24:38.769Z,18.35
2022-09-15T13:29:47.502Z,18.40
2022-09-15T13:35:41.231Z,17.54
2022-09-15T13:41:18.726Z,17.08
2022-09-15T13:46:32.679Z,16.87
2022-09-15T13:51:38.151Z,16.73
2022-09-15T13:56:41.246Z,16.63
2022-09-15T14:01:44.835Z,16.63
2022-09-15T14:06:50.410Z,16.74
2022-09-15T14:11:54.310Z,17.08
2022-09-15T14:16:57.558Z,17.33
2022-09-15T14:22:02.228Z,17.03
2022-09-15T14:27:10.128Z,16.77
2022-09-15T14:32:14.904Z,16.68
2022-09-15T14:37:23.809Z,16.93
2022-09-15T14:42:30.647Z,17.14
2022-09-15T14:47:33.359Z,17.25
2022-09-15T14:52:40.434Z,17.34
2022-09-15T14:57:45.506Z,17.13
2022-09-15T15:02:58.517Z,17.00
2022-09-15T15:08:05.004Z,16.96
2022-09-15T15:13:11.215Z,16.96
2022-09-15T15:18:32.424Z,16.98
2022-09-15T15:23:46.887Z,17.00
2022-09-15T15:28:49.783Z,17.16
2022-09-15T15:33:55.789Z,17.44
2022-09-15T15:39:01.687Z,17.38
2022-09-15T15:44:08.604Z,17.50
2022-09-15T15:49:13.258Z,18.27
2022-09-15T15:54:17.315Z,18.01
2022-09-15T15:59:20.927Z,17.83
2022-09-15T16:04:23.707Z,17.68
2022-09-15T16:09:27.811Z,17.55
2022-09-15T16:14:30.460Z,17.48
2022-09-15T16:19:33.193Z,17.33
2022-09-15T16:24:37.147Z,16.91
2022-09-15T16:29:39.722Z,16.67
2022-09-15T16:34:42.376Z,16.38
2022-09-15T16:39:46.453Z,16.17
2022-09-15T16:44:49.123Z,16.03
2022-09-15T16:49:52.697Z,15.89
2022-09-15T16:54:57.114Z,15.81
2022-09-15T16:59:59.756Z,15.75
2022-09-15T17:05:02.406Z,15.72
2022-09-15T17:10:07.905Z,15.71
2022-09-15T17:15:19.964Z,15.67
2022-09-15T17:20:23.760Z,15.67
2022-09-15T17:25:30.104Z,15.70
2022-09-15T17:30:33.327Z,15.71
2022-09-15T17:35:37.382Z,15.70
2022-09-15T17:40:41.453Z,15.65
2022-09-15T17:45:44.144Z,15.62
2022-09-15T17:50:48.799Z,15.61
2022-09-15T17:55:54.224Z,15.60
2022-09-15T18:00:56.959Z,15.57
2022-09-15T18:06:00.987Z,15.53
2022-09-15T18:11:06.540Z,15.51
2022-09-15T18:16:13.154Z,15.53
2022-09-15T18:21:24.508Z,15.50
2022-09-15T18:26:28.515Z,15.47
2022-09-15T18:31:31.348Z,15.39
2022-09-15T18:36:34.245Z,15.32
2022-09-15T18:41:38.988Z,15.29
2022-09-15T18:46:42.015Z,15.29
2022-09-15T18:51:52.207Z,15.25
2022-09-15T18:56:56.415Z,15.24
2022-09-15T19:01:59.278Z,15.22
2022-09-15T19:07:02.035Z,15.21
2022-09-15T19:12:06.568Z,15.17
2022-09-15T19:17:09.307Z,15.20
2022-09-15T19:22:11.998Z,15.20
2022-09-15T19:27:16.038Z,15.16
2022-09-15T19:32:19.301Z,15.18
2022-09-15T19:37:22.768Z,15.12
2022-09-15T19:42:26.809Z,15.12
2022-09-15T19:47:29.507Z,15.05
2022-09-15T19:52:32.347Z,15.03
2022-09-15T19:57:39.473Z,15.01
2022-09-15T20:02:42.537Z,14.99
2022-09-15T20:07:48.080Z,14.94
2022-09-15T20:12:52.114Z,14.91
2022-09-15T20:17:54.787Z,14.82
2022-09-15T20:22:57.726Z,14.78
2022-09-15T20:28:01.777Z,14.77
2022-09-15T20:33:04.434Z,14.70
2022-09-15T20:38:07.087Z,14.74
2022-09-15T20:43:11.144Z,14.79
2022-09-15T20:48:13.749Z,14.79
2022-09-15T20:53:16.401Z,14.77
2022-09-15T20:58:20.360Z,14.69
2022-09-15T21:03:24.086Z,14.58
2022-09-15T21:08:26.792Z,14.55
2022-09-15T21:13:32.275Z,14.50
2022-09-15T21:18:36.388Z,14.53
2022-09-15T21:23:41.293Z,14.56
2022-09-15T21:28:45.607Z,14.53
2022-09-15T21:33:49.023Z,14.48
2022-09-15T21:38:53.392Z,14.46
2022-09-15T21:43:58.726Z,14.47
2022-09-15T21:49:01.424Z,14.35
2022-09-15T21:54:04.892Z,14.12
2022-09-15T21:59:09.293Z,14.03
2022-09-15T22:04:12.244Z,14.01
2022-09-15T22:09:16.206Z,13.98
2022-09-15T22:14:21.395Z,13.98
2022-09-15T22:19:24.202Z,13.96
2022-09-15T22:24:26.950Z,13.95
2022-09-15T22:29:30.882Z,13.81
2022-09-15T22:34:33.512Z,13.67
2022-09-15T22:39:58.096Z,13.60
2022-09-15T22:45:00.136Z,13.51
2022-09-15T22:50:02.757Z,13.45
2022-09-15T22:55:06.181Z,13.43
2022-09-15T23:00:12.049Z,13.44
2022-09-15T23:05:14.685Z,13.46
2022-09-15T23:10:17.440Z,13.49
2022-09-15T23:15:21.402Z,13.54
2022-09-15T23:20:24.019Z,13.50
2022-09-15T23:25:26.999Z,13.37
2022-09-15T23:30:30.975Z,13.24
2022-09-15T23:35:33.582Z,13.16
2022-09-15T23:40:36.192Z,13.08
2022-09-15T23:45:40.874Z,12.98
2022-09-15T23:50:44.113Z,12.94
2022-09-15T23:55:47.409Z,12.88
